Погода Учуган-Асановона 2 недели

Республика Башкортостан, Россия

22 февраля-05 марта
  • 22февраля
    Сегодня
    -26°
    -14°
    Ясно и безоблачно
    ВремяПогодаТемператураВлажностьДавлениеВетер, м/сВероятность осадков
    02:00Ясно и безоблачно-25°C82 %753 мм2.4 м/с2 %
    05:00Практически безоблачно-26°C82 %753 мм2.5 м/с2 %
    08:00Практически безоблачно-26°C82 %754 мм2.2 м/с2 %
    11:00Ясно и безоблачно-22°C72 %755 мм1.7 м/с1 %
    14:00Ясно и безоблачно-18°C66 %755 мм1.4 м/с2 %
    17:00Ясно и безоблачно-16°C71 %755 мм1.5 м/с2 %
    20:00Ясно и безоблачно-20°C84 %755 мм2.4 м/с2 %
    23:00Практически безоблачно-22°C85 %755 мм2.4 м/с2 %
  • 23февраля
    Пятница
    -23°
    -12°
    Ясно и безоблачно
    ВремяПогодаТемператураВлажностьДавлениеВетер, м/сВероятность осадков
    02:00Практически безоблачно-23°C80 %755 мм2.1 м/с2 %
    05:00Практически безоблачно-25°C81 %755 мм2.0 м/с2 %
    08:00Практически безоблачно-26°C82 %756 мм1.7 м/с2 %
    11:00Ясно и безоблачно-18°C71 %757 мм1.3 м/с2 %
    14:00Ясно и безоблачно-14°C67 %758 мм1.6 м/с2 %
    17:00Ясно и безоблачно-13°C63 %758 мм1.0 м/с2 %
    20:00Ясно и безоблачно-20°C74 %758 мм1.7 м/с2 %
    23:00Ясно и безоблачно-20°C72 %759 мм1.4 м/с2 %
  • 24февраля
    Суббота
    -23°
    -9°
    Ясно и безоблачно
    ВремяПогодаТемператураВлажностьДавлениеВетер, м/сВероятность осадков
    02:00Ясно и безоблачно-22°C81 %758 мм1.9 м/с2 %
    05:00Практически безоблачно-22°C83 %759 мм1.8 м/с2 %
    08:00Ясно и безоблачно-22°C81 %760 мм1.7 м/с2 %
    11:00Ясно и безоблачно-15°C67 %761 мм1.1 м/с2 %
    14:00Ясно и безоблачно-11°C55 %761 мм1.2 м/с2 %
    17:00Ясно и безоблачно-10°C57 %761 мм1.0 м/с2 %
    20:00Ясно и безоблачно-16°C69 %761 мм2.2 м/с2 %
    23:00Ясно и безоблачно-18°C73 %761 мм1.7 м/с2 %
  • 25февраля
    Воскресенье
    -20°
    -6°
    Ясно и безоблачно
    ВремяПогодаТемператураВлажностьДавлениеВетер, м/сВероятность осадков
    02:00Ясно и безоблачно-20°C74 %761 мм2.2 м/с2 %
    05:00Практически безоблачно-21°C71 %761 мм2.2 м/с2 %
    08:00Ясно и безоблачно-21°C67 %762 мм2.0 м/с2 %
    11:00Ясно и безоблачно-15°C54 %762 мм1.2 м/с2 %
    14:00Ясно и безоблачно-10°C49 %763 мм1.2 м/с2 %
    17:00Ясно и безоблачно-8°C57 %763 мм0.9 м/с2 %
    20:00Ясно и безоблачно-13°C65 %763 мм2.3 м/с2 %
    23:00Ясно и безоблачно-16°C70 %762 мм2.2 м/с2 %
  • 26февраля
    Понедельник
    -16°
    -4°
    Ясно и безоблачно
    ВремяПогодаТемператураВлажностьДавлениеВетер, м/сВероятность осадков
    02:00Ясно и безоблачно-18°C70 %761 мм2.0 м/с2 %
    05:00Ясно и безоблачно-20°C70 %761 мм2.2 м/с2 %
    08:00Ясно и безоблачно-19°C64 %761 мм2.0 м/с2 %
    11:00Ясно и безоблачно-13°C53 %762 мм1.6 м/с2 %
    14:00Ясно и безоблачно-7°C46 %762 мм1.2 м/с2 %
    17:00Ясно и безоблачно-6°C56 %761 мм1.0 м/с2 %
    20:00Ясно и безоблачно-11°C63 %761 мм2.5 м/с2 %
    23:00Ясно и безоблачно-15°C59 %760 мм1.6 м/с2 %
Мы используем cookies
Соглашаюсь